Time;durP1;ratioP1;P1;durP2;ratioP2;P2;SDS_P1;SDS_P2;PMS_P1;PMS_P2;Temp;Humidity;BMP_temperature;BMP_pressure;BME280_temperature;BME280_humidity;BME280_pressure;Samples;Min_cycle;Max_cycle;Signal;HPM_P1;HPM_P2
2023/01/11 00:00:12;;;;;;;13.38;11.30;;;;;;;;;;5024919;28;20087;-79
2023/01/11 00:02:38;;;;;;;10.98;8.85;;;;;;;;;;5019788;28;20164;-80
2023/01/11 00:05:05;;;;;;;13.48;11.13;;;;;;;;;;5040779;28;20048;-80
2023/01/11 00:07:31;;;;;;;6.93;6.22;;;;;;;;;;5042953;28;20048;-80
2023/01/11 00:09:57;;;;;;;12.98;10.63;;;;;;;;;;5019992;28;20541;-80
2023/01/11 00:12:23;;;;;;;8.90;7.97;;;;;;;;;;5035905;28;20044;-80
2023/01/11 00:14:49;;;;;;;12.82;9.95;;;;;;;;;;5035792;28;20048;-79
2023/01/11 00:17:15;;;;;;;10.07;8.18;;;;;;;;;;5052844;28;20104;-79
2023/01/11 00:19:41;;;;;;;10.52;8.88;;;;;;;;;;5037356;28;20040;-79
2023/01/11 00:22:07;;;;;;;10.93;9.70;;;;;;;;;;5035558;28;20051;-79
2023/01/11 00:24:33;;;;;;;12.95;8.90;;;;;;;;;;5035749;28;21936;-81
2023/01/11 00:26:59;;;;;;;10.63;9.32;;;;;;;;;;5041640;28;21117;-81
2023/01/11 00:29:25;;;;;;;12.98;10.77;;;;;;;;;;5039887;28;20484;-80
2023/01/11 00:31:52;;;;;;;12.60;10.20;;;;;;;;;;5023396;28;20045;-79
2023/01/11 00:34:19;;;;;;;14.13;11.32;;;;;;;;;;5019921;28;20445;-80
2023/01/11 00:36:45;;;;;;;10.20;9.10;;;;;;;;;;5033999;28;20073;-80
2023/01/11 00:39:11;;;;;;;10.45;8.98;;;;;;;;;;5014589;28;20086;-80
2023/01/11 00:49:57;;;;;;;9.35;7.80;;;;;;;;;;5043689;28;20127;-80
2023/01/11 00:52:23;;;;;;;9.77;8.77;;;;;;;;;;5050248;28;20103;-80
2023/01/11 00:54:49;;;;;;;7.43;6.72;;;;;;;;;;5066303;28;20036;-80
2023/01/11 00:57:15;;;;;;;9.68;8.18;;;;;;;;;;5082613;28;20028;-80
2023/01/11 00:59:41;;;;;;;8.63;7.80;;;;;;;;;;5075692;28;20039;-79
2023/01/11 01:02:08;;;;;;;9.80;8.32;;;;;;;;;;5054885;28;20095;-79
2023/01/11 01:04:34;;;;;;;8.52;7.30;;;;;;;;;;5035934;28;20836;-80
2023/01/11 01:07:01;;;;;;;8.45;7.55;;;;;;;;;;5038608;28;20125;-80
2023/01/11 01:09:27;;;;;;;7.57;6.55;;;;;;;;;;5041083;28;20051;-79
2023/01/11 01:11:53;;;;;;;11.10;8.13;;;;;;;;;;5036317;28;20056;-80
2023/01/11 01:14:27;;;;;;;8.48;7.68;;;;;;;;;;5037546;28;20614;-79
2023/01/11 01:16:54;;;;;;;9.43;6.88;;;;;;;;;;5036725;28;20094;-79
2023/01/11 01:19:21;;;;;;;9.23;6.60;;;;;;;;;;5041286;28;20044;-79
2023/01/11 01:21:47;;;;;;;7.88;7.13;;;;;;;;;;5037485;28;20141;-79
2023/01/11 01:24:13;;;;;;;8.82;7.57;;;;;;;;;;5038533;28;20148;-78
2023/01/11 01:26:39;;;;;;;12.30;9.25;;;;;;;;;;5022573;28;20036;-79
2023/01/11 01:29:06;;;;;;;9.27;7.40;;;;;;;;;;5018840;28;20689;-79
2023/01/11 01:31:32;;;;;;;7.72;6.28;;;;;;;;;;5014721;28;20101;-78
2023/01/11 01:33:58;;;;;;;9.95;7.80;;;;;;;;;;5031827;28;20044;-79
2023/01/11 01:36:24;;;;;;;9.63;8.50;;;;;;;;;;5050140;28;21536;-79
2023/01/11 01:38:50;;;;;;;8.90;7.15;;;;;;;;;;5016503;28;20047;-79
2023/01/11 01:41:16;;;;;;;7.10;6.25;;;;;;;;;;5033018;28;20499;-79
2023/01/11 01:43:47;;;;;;;7.68;6.90;;;;;;;;;;5021299;28;20087;-80
2023/01/11 01:46:15;;;;;;;7.25;5.85;;;;;;;;;;5030970;28;20515;-79
2023/01/11 01:48:43;;;;;;;6.13;5.53;;;;;;;;;;5033643;28;20051;-79
2023/01/11 01:51:10;;;;;;;7.25;6.25;;;;;;;;;;5017744;28;20047;-78
2023/01/11 01:53:41;;;;;;;7.38;6.68;;;;;;;;;;5016042;28;20774;-79
2023/01/11 01:56:09;;;;;;;5.82;4.25;;;;;;;;;;5022244;28;20049;-79
2023/01/11 01:58:38;;;;;;;9.23;6.88;;;;;;;;;;5033013;28;20072;-79
2023/01/11 02:03:50;;;;;;;6.13;5.40;;;;;;;;;;5032412;28;20049;-79
2023/01/11 02:06:16;;;;;;;5.85;5.25;;;;;;;;;;5031697;28;20040;-79
2023/01/11 02:08:43;;;;;;;7.22;6.57;;;;;;;;;;5033710;28;20105;-79
2023/01/11 02:11:28;;;;;;;6.43;5.28;;;;;;;;;;5033711;28;20482;-79
2023/01/11 02:13:56;;;;;;;6.65;4.70;;;;;;;;;;5034896;28;20170;-79
2023/01/11 02:16:22;;;;;;;8.18;6.35;;;;;;;;;;5022197;28;20067;-80
2023/01/11 02:18:48;;;;;;;7.13;6.43;;;;;;;;;;5031244;28;20052;-79
2023/01/11 02:21:26;;;;;;;6.85;6.15;;;;;;;;;;5033561;28;20055;-79
2023/01/11 02:24:11;;;;;;;6.95;6.25;;;;;;;;;;5032412;28;21031;-80
2023/01/11 02:26:57;;;;;;;6.93;6.22;;;;;;;;;;5031582;28;20428;-79
2023/01/11 02:29:50;;;;;;;6.03;5.28;;;;;;;;;;5035319;28;20040;-80
2023/01/11 02:32:16;;;;;;;4.68;4.25;;;;;;;;;;5019528;28;20056;-80
2023/01/11 02:34:45;;;;;;;4.85;4.35;;;;;;;;;;5046580;28;20269;-80
2023/01/11 02:37:11;;;;;;;4.70;4.30;;;;;;;;;;5035409;28;20040;-81
2023/01/11 02:39:44;;;;;;;6.38;5.10;;;;;;;;;;5065013;28;20439;-81
2023/01/11 02:45:33;;;;;;;5.13;3.75;;;;;;;;;;5079948;28;20139;-80
2023/01/11 02:47:59;;;;;;;;;;;;;;;;;;5077876;28;20108;-80
2023/01/11 02:50:31;;;;;;;3.05;2.75;;;;;;;;;;5055537;28;19977;-80
2023/01/11 02:53:00;;;;;;;3.63;3.28;;;;;;;;;;5050101;28;20385;-80
2023/01/11 02:55:30;;;;;;;4.20;2.33;;;;;;;;;;5049840;28;20631;-80
2023/01/11 02:57:58;;;;;;;4.63;3.85;;;;;;;;;;5047014;28;20098;-80
2023/01/11 03:00:25;;;;;;;4.32;3.78;;;;;;;;;;5047326;28;20334;-79
2023/01/11 03:03:06;;;;;;;3.58;3.28;;;;;;;;;;5046595;28;20629;-79
2023/01/11 03:05:34;;;;;;;4.10;3.70;;;;;;;;;;5046079;28;20032;-78
2023/01/11 03:08:02;;;;;;;5.03;4.15;;;;;;;;;;5065488;28;20729;-78
2023/01/11 03:10:40;;;;;;;5.63;4.68;;;;;;;;;;5047237;28;20060;-78
2023/01/11 03:13:06;;;;;;;4.68;3.80;;;;;;;;;;5046670;28;20687;-77
2023/01/11 03:15:39;;;;;;;5.57;3.88;;;;;;;;;;5062447;27;20484;-78
2023/01/11 03:18:25;;;;;;;5.70;4.43;;;;;;;;;;5033323;28;20127;-77
2023/01/11 03:21:12;;;;;;;5.38;4.85;;;;;;;;;;5043990;28;20064;-78
2023/01/11 03:23:57;;;;;;;6.70;5.10;;;;;;;;;;4976968;28;20139;-77
2023/01/11 03:26:35;;;;;;;5.13;4.30;;;;;;;;;;5049134;28;20197;-77
2023/01/11 03:29:10;;;;;;;6.78;4.72;;;;;;;;;;5047484;28;20055;-77
2023/01/11 03:32:06;;;;;;;4.15;3.75;;;;;;;;;;5032117;28;20051;-77
2023/01/11 03:34:36;;;;;;;7.78;5.78;;;;;;;;;;5038563;28;20048;-77
2023/01/11 03:37:19;;;;;;;4.20;3.80;;;;;;;;;;5047798;28;22075;-77
2023/01/11 03:39:54;;;;;;;5.65;3.83;;;;;;;;;;5029579;28;20043;-77
2023/01/11 03:42:22;;;;;;;3.83;3.30;;;;;;;;;;5047020;28;20132;-78
2023/01/11 03:44:52;;;;;;;5.40;4.22;;;;;;;;;;5045597;28;20683;-77
2023/01/11 03:47:19;;;;;;;5.03;4.53;;;;;;;;;;5035684;28;20044;-77
2023/01/11 03:49:48;;;;;;;3.65;3.20;;;;;;;;;;5050370;28;20048;-76
2023/01/11 03:52:15;;;;;;;3.55;3.05;;;;;;;;;;5046031;28;20134;-77
2023/01/11 03:54:43;;;;;;;2.97;1.95;;;;;;;;;;5045613;28;20551;-78
2023/01/11 03:57:15;;;;;;;3.30;3.00;;;;;;;;;;5045538;28;20738;-78
2023/01/11 03:59:41;;;;;;;3.88;3.22;;;;;;;;;;5043196;28;20050;-79
2023/01/11 04:02:34;;;;;;;3.28;2.75;;;;;;;;;;5030749;28;20044;-78
2023/01/11 04:05:00;;;;;;;3.45;3.15;;;;;;;;;;5050088;28;20047;-79
2023/01/11 04:07:26;;;;;;;4.25;2.25;;;;;;;;;;5029098;28;20511;-79
2023/01/11 04:09:52;;;;;;;6.75;4.00;;;;;;;;;;5062229;28;20041;-79
2023/01/11 04:12:18;;;;;;;8.00;4.32;;;;;;;;;;5046480;28;20056;-79
2023/01/11 04:14:44;;;;;;;8.27;4.40;;;;;;;;;;5044840;28;20067;-79
2023/01/11 04:17:10;;;;;;;4.38;3.10;;;;;;;;;;5048168;28;20083;-79
2023/01/11 04:19:36;;;;;;;11.80;6.30;;;;;;;;;;5046148;28;20040;-80
2023/01/11 04:22:02;;;;;;;9.68;6.05;;;;;;;;;;5046225;28;20049;-80
2023/01/11 04:24:28;;;;;;;16.55;7.13;;;;;;;;;;5069185;28;20265;-80
2023/01/11 04:26:54;;;;;;;17.95;7.20;;;;;;;;;;5074887;28;20554;-80
2023/01/11 04:29:20;;;;;;;15.38;7.45;;;;;;;;;;5073589;28;20075;-81
2023/01/11 04:31:46;;;;;;;21.35;8.68;;;;;;;;;;5078650;28;20064;-81
2023/01/11 04:34:12;;;;;;;18.77;8.75;;;;;;;;;;5076648;28;20043;-82
2023/01/11 04:36:38;;;;;;;20.80;8.25;;;;;;;;;;5066182;28;20045;-82
2023/01/11 04:39:05;;;;;;;24.08;8.93;;;;;;;;;;5047744;28;20537;-82
2023/01/11 04:44:16;;;;;;;21.65;8.98;;;;;;;;;;5053650;28;20044;-81
2023/01/11 04:46:42;;;;;;;26.70;7.90;;;;;;;;;;5056269;28;20132;-82
2023/01/11 04:49:08;;;;;;;28.35;9.40;;;;;;;;;;5038832;28;20479;-82
2023/01/11 04:51:34;;;;;;;27.10;7.10;;;;;;;;;;5056514;28;20091;-82
2023/01/11 04:54:00;;;;;;;24.35;5.82;;;;;;;;;;5071091;27;20437;-81
2023/01/11 04:56:28;;;;;;;26.33;5.38;;;;;;;;;;5040297;28;20038;-81
2023/01/11 04:58:54;;;;;;;27.27;5.10;;;;;;;;;;5065692;28;21156;-82
2023/01/11 05:01:20;;;;;;;29.02;5.68;;;;;;;;;;5034130;28;20072;-82
2023/01/11 05:03:46;;;;;;;17.30;4.68;;;;;;;;;;5055347;28;20055;-82
2023/01/11 05:06:13;;;;;;;24.40;5.90;;;;;;;;;;5044611;28;20044;-83
2023/01/11 05:08:39;;;;;;;21.20;4.65;;;;;;;;;;5055537;28;20076;-84
2023/01/11 05:11:10;;;;;;;31.17;4.65;;;;;;;;;;5056564;28;20063;-83
2023/01/11 05:13:43;;;;;;;29.55;5.30;;;;;;;;;;5047746;28;21445;-84
2023/01/11 05:16:22;;;;;;;19.77;4.95;;;;;;;;;;5054718;28;20096;-83
2023/01/11 05:18:50;;;;;;;22.90;5.00;;;;;;;;;;5055519;28;20133;-84
2023/01/11 05:21:17;;;;;;;20.05;4.28;;;;;;;;;;5056983;28;20491;-84
2023/01/11 05:23:43;;;;;;;27.38;3.72;;;;;;;;;;5071990;28;20150;-83
2023/01/11 05:26:10;;;;;;;23.63;3.65;;;;;;;;;;5058214;28;20784;-84
2023/01/11 05:28:36;;;;;;;17.75;4.35;;;;;;;;;;5044418;28;20082;-83
2023/01/11 05:31:02;;;;;;;25.60;4.55;;;;;;;;;;5050824;28;20075;-83
2023/01/11 05:33:29;;;;;;;19.40;3.42;;;;;;;;;;5040703;28;20392;-83
2023/01/11 05:35:59;;;;;;;32.20;3.83;;;;;;;;;;5055482;28;20083;-82
2023/01/11 05:38:25;;;;;;;21.63;3.65;;;;;;;;;;5054499;28;20044;-82
2023/01/11 05:40:55;;;;;;;21.05;2.95;;;;;;;;;;5059594;28;20071;-83
2023/01/11 05:43:21;;;;;;;17.20;3.28;;;;;;;;;;5054464;28;20044;-83
2023/01/11 05:45:47;;;;;;;15.02;2.75;;;;;;;;;;5056979;28;21690;-82
2023/01/11 05:48:13;;;;;;;17.08;3.13;;;;;;;;;;5046175;28;20080;-82
2023/01/11 05:50:39;;;;;;;15.32;3.50;;;;;;;;;;5057424;28;20484;-82
2023/01/11 05:53:06;;;;;;;16.40;3.25;;;;;;;;;;5029974;28;20043;-83
2023/01/11 05:55:32;;;;;;;19.77;2.95;;;;;;;;;;5057137;28;20056;-82
2023/01/11 05:57:58;;;;;;;24.70;3.67;;;;;;;;;;5043048;28;20044;-83
2023/01/11 06:00:24;;;;;;;13.18;2.55;;;;;;;;;;5056757;28;20135;-83
2023/01/11 06:02:50;;;;;;;18.02;2.97;;;;;;;;;;5063150;28;20139;-83
2023/01/11 06:05:16;;;;;;;32.20;4.32;;;;;;;;;;5064904;28;20045;-82
2023/01/11 06:07:42;;;;;;;27.02;4.18;;;;;;;;;;5070417;28;20039;-83
2023/01/11 06:10:09;;;;;;;25.20;3.90;;;;;;;;;;5053153;28;20162;-83
2023/01/11 06:12:35;;;;;;;20.10;4.13;;;;;;;;;;5070449;28;20063;-83
2023/01/11 06:15:01;;;;;;;16.65;2.70;;;;;;;;;;5066505;28;20132;-83
2023/01/11 06:17:27;;;;;;;20.17;3.08;;;;;;;;;;5027575;28;20640;-81
2023/01/11 06:19:53;;;;;;;20.17;3.30;;;;;;;;;;5056169;28;20131;-82
2023/01/11 06:22:19;;;;;;;27.33;3.88;;;;;;;;;;5037986;28;20441;-82
2023/01/11 06:24:46;;;;;;;19.88;3.13;;;;;;;;;;5053475;28;20047;-82
2023/01/11 06:27:12;;;;;;;22.42;3.13;;;;;;;;;;5036610;28;20062;-82
2023/01/11 06:29:38;;;;;;;23.20;3.35;;;;;;;;;;5055787;28;20131;-81
2023/01/11 06:32:04;;;;;;;20.42;3.65;;;;;;;;;;5056907;28;20210;-82
2023/01/11 06:34:30;;;;;;;32.10;4.22;;;;;;;;;;5052698;28;20064;-82
2023/01/11 06:36:56;;;;;;;24.42;4.05;;;;;;;;;;5040230;28;20515;-81
2023/01/11 06:39:22;;;;;;;23.05;3.03;;;;;;;;;;5054144;28;21631;-81
2023/01/11 06:41:48;;;;;;;22.52;3.63;;;;;;;;;;5054990;28;22040;-83
2023/01/11 06:44:14;;;;;;;25.25;4.63;;;;;;;;;;5035361;28;20075;-83
2023/01/11 06:46:40;;;;;;;26.58;3.67;;;;;;;;;;5054492;28;20037;-80
2023/01/11 06:49:06;;;;;;;29.13;4.35;;;;;;;;;;5057198;28;20131;-81
2023/01/11 06:51:32;;;;;;;23.73;3.60;;;;;;;;;;5037458;28;20040;-81
2023/01/11 06:53:58;;;;;;;21.10;3.58;;;;;;;;;;5054837;28;20048;-80
2023/01/11 06:56:25;;;;;;;36.33;4.90;;;;;;;;;;5055619;28;20048;-81
2023/01/11 06:58:51;;;;;;;29.58;3.80;;;;;;;;;;5056328;28;20047;-81
2023/01/11 07:01:18;;;;;;;31.38;5.80;;;;;;;;;;5055294;28;20411;-81
2023/01/11 07:03:44;;;;;;;28.25;4.60;;;;;;;;;;5055049;28;20694;-81
2023/01/11 07:06:10;;;;;;;27.15;3.88;;;;;;;;;;5055275;28;20045;-81
2023/01/11 07:08:37;;;;;;;29.38;4.05;;;;;;;;;;5055493;28;20436;-82
2023/01/11 07:11:03;;;;;;;22.83;4.05;;;;;;;;;;5057527;28;20404;-81
2023/01/11 07:13:29;;;;;;;40.33;4.40;;;;;;;;;;5056888;28;20351;-80
2023/01/11 07:15:56;;;;;;;30.75;4.70;;;;;;;;;;5039937;28;20048;-81
2023/01/11 07:18:22;;;;;;;26.92;3.92;;;;;;;;;;5052262;28;20084;-82
2023/01/11 07:20:50;;;;;;;24.27;3.60;;;;;;;;;;5056193;28;20138;-81
2023/01/11 07:23:16;;;;;;;31.50;4.35;;;;;;;;;;5053240;28;20048;-81
2023/01/11 07:25:42;;;;;;;31.58;3.25;;;;;;;;;;5031670;28;20685;-80
2023/01/11 07:28:09;;;;;;;20.95;3.00;;;;;;;;;;5056423;28;20052;-81
2023/01/11 07:30:36;;;;;;;32.80;3.45;;;;;;;;;;5053805;28;20039;-82
2023/01/11 07:33:05;;;;;;;27.38;3.80;;;;;;;;;;5058161;28;20496;-82
2023/01/11 07:35:31;;;;;;;25.55;4.45;;;;;;;;;;5055425;28;21697;-81
2023/01/11 07:37:57;;;;;;;31.90;4.65;;;;;;;;;;5039045;28;20040;-81
2023/01/11 07:40:23;;;;;;;24.20;3.33;;;;;;;;;;5056704;28;20044;-82
2023/01/11 07:45:36;;;;;;;33.42;3.85;;;;;;;;;;5074082;28;20048;-82
2023/01/11 07:48:03;;;;;;;31.13;4.55;;;;;;;;;;5097351;28;20142;-82
2023/01/11 07:50:29;;;;;;;27.13;3.60;;;;;;;;;;5074876;28;20051;-82
2023/01/11 07:52:55;;;;;;;23.25;5.15;;;;;;;;;;5069385;28;20048;-81
2023/01/11 07:55:22;;;;;;;28.00;3.75;;;;;;;;;;5043862;28;20130;-81
2023/01/11 07:57:48;;;;;;;18.42;2.80;;;;;;;;;;5055359;28;20058;-81
2023/01/11 08:00:14;;;;;;;27.35;3.42;;;;;;;;;;5055015;28;20048;-82
2023/01/11 08:02:40;;;;;;;21.42;3.80;;;;;;;;;;5055108;28;20090;-82
2023/01/11 08:05:07;;;;;;;17.80;3.17;;;;;;;;;;5052477;28;20480;-82
2023/01/11 08:07:33;;;;;;;19.08;4.18;;;;;;;;;;5060028;28;20044;-82
2023/01/11 08:09:59;;;;;;;15.02;2.25;;;;;;;;;;5055520;28;20563;-80
2023/01/11 08:15:12;;;;;;;15.18;2.20;;;;;;;;;;5055070;28;20059;-80
2023/01/11 08:17:39;;;;;;;15.75;2.40;;;;;;;;;;5037065;28;20055;-80
2023/01/11 08:20:05;;;;;;;17.20;2.70;;;;;;;;;;5052947;28;20069;-80
2023/01/11 08:22:31;;;;;;;16.10;2.10;;;;;;;;;;5056335;28;20163;-79
2023/01/11 08:24:57;;;;;;;17.05;2.03;;;;;;;;;;5059509;28;20040;-80
2023/01/11 08:27:23;;;;;;;16.40;2.58;;;;;;;;;;5042594;28;20044;-80
2023/01/11 08:29:49;;;;;;;15.50;2.10;;;;;;;;;;5060729;28;20040;-80
2023/01/11 08:32:15;;;;;;;13.00;2.15;;;;;;;;;;5058997;28;20170;-80
2023/01/11 08:34:41;;;;;;;9.05;1.70;;;;;;;;;;5059501;28;20549;-80
2023/01/11 08:37:08;;;;;;;13.23;2.33;;;;;;;;;;5041787;28;20040;-74
2023/01/11 08:39:34;;;;;;;8.00;2.15;;;;;;;;;;5056171;28;20568;-74
2023/01/11 08:42:01;;;;;;;13.35;2.20;;;;;;;;;;5041395;28;20056;-74
2023/01/11 08:44:28;;;;;;;15.98;2.40;;;;;;;;;;5045054;28;20074;-74
2023/01/11 08:46:54;;;;;;;13.93;2.08;;;;;;;;;;5053761;28;20040;-74
2023/01/11 08:49:20;;;;;;;10.25;2.50;;;;;;;;;;5052623;28;20972;-74
2023/01/11 08:51:46;;;;;;;12.07;2.17;;;;;;;;;;5043946;28;20395;-74
2023/01/11 08:54:13;;;;;;;8.80;2.20;;;;;;;;;;5063806;28;20075;-74
2023/01/11 08:56:39;;;;;;;15.75;2.58;;;;;;;;;;5053728;28;20050;-75
2023/01/11 08:59:05;;;;;;;12.80;2.70;;;;;;;;;;5041725;28;20488;-74
2023/01/11 09:01:32;;;;;;;12.55;2.88;;;;;;;;;;5056390;28;20594;-74
2023/01/11 09:03:58;;;;;;;19.27;2.97;;;;;;;;;;5053601;28;20123;-74
2023/01/11 09:06:25;;;;;;;15.20;2.17;;;;;;;;;;5053306;28;20082;-74
2023/01/11 09:08:51;;;;;;;15.55;2.40;;;;;;;;;;5053095;28;20048;-81
2023/01/11 09:14:03;;;;;;;17.65;2.10;;;;;;;;;;5059118;28;20129;-80
2023/01/11 09:16:29;;;;;;;14.55;2.80;;;;;;;;;;5071579;28;20040;-80
2023/01/11 09:18:55;;;;;;;20.20;2.30;;;;;;;;;;5076110;28;20055;-80
2023/01/11 09:21:22;;;;;;;16.25;2.63;;;;;;;;;;5080851;28;20042;-81
2023/01/11 09:23:48;;;;;;;18.95;2.97;;;;;;;;;;5080809;28;20111;-80
2023/01/11 09:26:14;;;;;;;17.60;2.53;;;;;;;;;;5061093;28;20047;-80
2023/01/11 09:28:40;;;;;;;20.25;3.05;;;;;;;;;;5074554;28;20052;-80
2023/01/11 09:31:08;;;;;;;15.40;2.22;;;;;;;;;;5058625;28;20045;-80
2023/01/11 09:33:34;;;;;;;19.27;2.50;;;;;;;;;;5057395;28;20052;-80
2023/01/11 09:36:01;;;;;;;25.75;3.10;;;;;;;;;;5024999;28;20056;-80
2023/01/11 09:38:29;;;;;;;22.55;3.40;;;;;;;;;;5057915;28;20036;-80
2023/01/11 09:40:56;;;;;;;19.08;2.75;;;;;;;;;;5055903;28;20553;-79
2023/01/11 09:43:26;;;;;;;18.80;3.13;;;;;;;;;;5059416;28;20463;-81
2023/01/11 09:45:54;;;;;;;16.40;2.40;;;;;;;;;;5058677;28;20076;-80
2023/01/11 09:48:32;;;;;;;15.77;2.92;;;;;;;;;;5056713;28;20044;-79
2023/01/11 09:50:59;;;;;;;12.65;2.30;;;;;;;;;;5056300;28;20056;-80
2023/01/11 09:53:31;;;;;;;17.45;2.58;;;;;;;;;;5056678;28;20062;-80
2023/01/11 09:56:00;;;;;;;9.70;1.98;;;;;;;;;;5039225;28;20072;-80
2023/01/11 09:58:39;;;;;;;15.85;2.95;;;;;;;;;;5055440;28;20060;-80
2023/01/11 10:01:26;;;;;;;14.82;2.22;;;;;;;;;;5056924;28;20070;-81
2023/01/11 10:04:04;;;;;;;11.02;2.25;;;;;;;;;;5058037;28;20075;-81
2023/01/11 10:06:50;;;;;;;18.08;3.33;;;;;;;;;;5046600;28;20499;-81
2023/01/11 10:09:17;;;;;;;13.13;2.30;;;;;;;;;;5056956;28;20041;-80
2023/01/11 10:11:51;;;;;;;17.13;2.92;;;;;;;;;;5043993;28;20340;-81
2023/01/11 10:14:24;;;;;;;17.40;1.95;;;;;;;;;;5063767;28;20134;-81
2023/01/11 10:17:19;;;;;;;14.52;2.80;;;9.50;99.90;;;;;;5058389;28;20081;-81
2023/01/11 10:19:48;;;;;;;12.18;2.42;;;;;;;;;;5056902;28;20060;-81
2023/01/11 10:22:23;;;;;;;24.30;3.40;;;;;;;;;;5054760;28;20421;-80
2023/01/11 10:24:53;;;;;;;18.33;2.05;;;;;;;;;;5053676;28;20040;-74
2023/01/11 10:27:40;;;;;;;17.48;2.50;;;;;;;;;;5046408;28;21641;-73
2023/01/11 10:30:35;;;;;;;18.08;2.80;;;;;;;;;;5036845;28;20048;-74
2023/01/11 10:33:41;;;;;;;14.43;3.55;;;;;;;;;;5053588;28;20037;-72
2023/01/11 10:38:57;;;;;;;11.80;3.22;;;;;;;;;;5059281;28;20048;-74
2023/01/11 10:41:37;;;;;;;15.90;2.85;;;;;;;;;;5064219;28;20055;-73
2023/01/11 10:44:30;;;;;;;13.55;2.97;;;;;;;;;;5058057;28;20052;-73
2023/01/11 10:46:56;;;;;;;17.02;3.15;;;;;;;;;;5043837;28;20060;-76
2023/01/11 10:49:42;;;;;;;9.90;1.98;;;;;;;;;;5056726;28;20040;-77
2023/01/11 10:52:17;;;;;;;11.00;2.00;;;;;;;;;;5057153;28;20058;-74
2023/01/11 10:54:48;;;;;;;12.55;2.53;;;;;;;;;;5041113;28;20056;-74
2023/01/11 10:57:28;;;;;;;11.93;1.67;;;;;;;;;;5062639;28;20156;-74
2023/01/11 11:00:12;;;;;;;12.80;2.50;;;;;;;;;;5057333;28;20049;-73
2023/01/11 11:02:38;;;;;;;;;;;;;;;;;;5071670;28;20051;-73
2023/01/11 11:05:07;;;;;;;8.88;2.10;;;;;;;;;;5072905;28;20313;-72
2023/01/11 11:07:33;;;;;;;12.05;2.35;;;;;;;;;;5069781;28;20078;-73
2023/01/11 11:10:10;;;;;;;14.32;2.20;;;;;;;;;;5071307;28;20040;-74
2023/01/11 11:12:38;;;;;;;9.32;1.80;;;;;;;;;;5055726;28;20181;-74
2023/01/11 11:15:17;;;;;;;15.23;2.05;;;;;;;;;;5076439;28;20901;-73
2023/01/11 11:17:49;;;;;;;10.90;2.70;;;;;;;;;;5038296;28;20044;-74
2023/01/11 11:20:23;;;;;;;16.58;2.63;;;;;;;;;;5055794;28;20203;-72
2023/01/11 11:22:55;;;;;;;13.57;2.50;;;;;;;;;;5040388;28;20561;-73
2023/01/11 11:25:26;;;;;;;18.08;2.97;;;;;;;;;;5058755;28;20047;-73
2023/01/11 11:27:57;;;;;;;14.05;2.50;;;;;;;;;;5056904;28;20089;-73
2023/01/11 11:30:38;;;;;;;20.30;3.40;;;;;;;;;;5053767;28;20036;-73
2023/01/11 11:33:07;;;;;;;18.30;2.33;;;;;;;;;;5057437;28;20040;-74
2023/01/11 11:35:40;;;;;;;12.45;2.42;;;;;;;;;;5039815;28;20122;-74
2023/01/11 11:38:18;;;;;;;15.20;2.60;;;;;;;;;;5058209;28;20383;-73
2023/01/11 11:40:46;;;;;;;18.63;2.92;;;;;;;;;;5066417;28;20052;-78
2023/01/11 11:43:27;;;;;;;17.60;2.67;;;;;;;;;;5059955;28;20084;-79
2023/01/11 11:45:57;;;;;;;15.32;2.53;;;;;;;;;;5058178;28;20051;-77
2023/01/11 11:48:24;;;;;;;21.30;2.85;;;;;;;;;;5060528;28;20047;-78
2023/01/11 11:50:52;;;;;;;17.75;2.75;;;;;;;;;;5042749;28;20048;-78
2023/01/11 11:53:32;;;;;;;11.77;2.60;;;;;;;;;;5057968;28;20087;-78
2023/01/11 11:55:59;;;;;;;13.90;2.33;;;;;;;;;;5059964;28;20040;-78
2023/01/11 11:58:25;;;;;;;10.50;2.50;;;;;;;;;;5059516;28;20040;-78
2023/01/11 12:00:52;;;;;;;14.48;3.17;;;;;;;;;;5058620;28;20041;-78
2023/01/11 12:03:20;;;;;;;19.48;2.80;;;;;;;;;;5058954;28;20056;-77
2023/01/11 12:06:06;;;;;;;20.50;4.20;;;;;;;;;;5059433;28;20173;-77
2023/01/11 12:08:34;;;;;;;15.18;2.28;;;;;;;;;;5059029;28;20101;-78
2023/01/11 12:11:05;;;;;;;17.52;2.97;;;;;;;;;;5059594;28;20044;-77
2023/01/11 12:13:35;;;;;;;16.83;2.75;;;;;;;;;;5041235;28;20091;-77
2023/01/11 12:16:03;;;;;;;17.65;2.85;;;;;;;;;;5046260;28;20048;-78
2023/01/11 12:18:42;;;;;;;17.27;3.92;;;;;;;;;;5058594;28;21250;-78
2023/01/11 12:21:31;;;;;;;13.38;2.55;;;;;;;;;;5058703;28;20090;-78
2023/01/11 12:24:07;;;;;;;19.33;3.22;;;;;;;;;;5062592;28;20281;-77
2023/01/11 12:26:40;;;;;;;17.10;2.55;;;;;;;;;;5042379;28;20032;-78
2023/01/11 12:29:12;;;;;;;20.80;3.15;;;;;;;;;;5063086;28;20051;-77
2023/01/11 12:31:38;;;;;;;9.50;2.22;;;;;;;;;;5067491;28;20059;-79
2023/01/11 12:34:08;;;;;;;13.75;3.17;;;;;;;;;;5057484;28;21614;-78
2023/01/11 12:36:41;;;;;;;14.75;2.60;;;;;;;;;;5074626;28;20043;-79
2023/01/11 12:39:13;;;;;;;18.60;3.50;;;;;;;;;;5060977;28;21872;-79
2023/01/11 12:41:49;;;;;;;13.95;3.83;;;;;;;;;;5056709;28;20091;-79
2023/01/11 12:44:33;;;;;;;18.83;3.25;;;;;;;;;;5060996;28;20079;-79
2023/01/11 12:47:13;;;;;;;12.27;2.40;;;;;;;;;;5065478;28;20044;-78
2023/01/11 12:49:47;;;;;;;14.40;2.47;;;;;;;;;;5084039;28;20052;-78
2023/01/11 12:52:13;;;;;;;;;;;;;;;;;;5081348;28;20049;-79
2023/01/11 12:55:00;;;;;;;23.05;3.75;;;;;;;;;;5073339;28;19920;-77
2023/01/11 12:57:26;;;;;;;20.60;3.60;;;;;;;;;;5054734;28;20053;-78
2023/01/11 12:59:55;;;;;;;21.30;3.92;;;;;;;;;;5056821;28;20044;-78
2023/01/11 13:02:47;;;;;;;11.20;2.47;;;;;;;;;;5049762;28;20064;-79
2023/01/11 13:05:16;;;;;;;16.90;3.08;;;;;;;;;;5050410;28;20040;-79
2023/01/11 13:07:51;;;;;;;15.05;2.13;;;;;;;;;;5062752;28;20044;-78
2023/01/11 13:10:17;;;;;;;24.15;4.70;;;;;;;;;;5063056;28;20048;-78
2023/01/11 13:12:54;;;;;;;13.98;2.53;;;;;;;;;;5062219;28;20090;-78
2023/01/11 13:15:41;;;;;;;20.27;2.65;;;;;;;;;;5062368;28;20052;-79
2023/01/11 13:18:12;;;;;;;14.80;2.75;;;;;;;;;;5062036;28;20090;-79
2023/01/11 13:20:43;;;;;;;20.60;3.30;;;;;;;;;;5076522;28;20048;-79
2023/01/11 13:23:16;;;;;;;15.52;2.85;;;;;;;;;;5068773;28;20488;-79
2023/01/11 13:25:44;;;;;;;16.40;2.58;;;;;;;;;;5062848;28;20126;-79
2023/01/11 13:28:32;;;;;;;15.68;3.25;;;;;;;;;;5062077;28;20088;-79
2023/01/11 13:30:59;;;;;;;19.67;3.95;;;;;;;;;;5044329;28;20109;-81
2023/01/11 13:33:29;;;;;;;17.73;3.33;;;;;;;;;;5060339;28;20140;-78
2023/01/11 13:35:58;;;;;;;14.70;2.58;;;;;;;;;;5063721;28;20047;-79
2023/01/11 13:38:34;;;;;;;26.45;3.45;;;;;;;;;;5059419;28;20690;-77
2023/01/11 13:41:07;;;;;;;18.75;3.70;;;;;;;;;;5058700;28;20072;-78
2023/01/11 13:43:52;;;;;;;18.95;3.40;;;;;;;;;;5040751;28;20178;-80
2023/01/11 13:46:36;;;;;;;27.13;3.38;;;;;;;;;;5045299;28;20473;-80
2023/01/11 13:49:02;;;;;;;24.05;4.13;;;;;;;;;;5044730;28;20047;-79
2023/01/11 13:51:34;;;;;;;15.20;2.45;;;;;;;;;;5057471;28;20040;-79
2023/01/11 13:54:00;;;;;;;18.60;3.13;;;;;;;;;;5058970;28;20051;-79
2023/01/11 13:56:37;;;;;;;16.70;3.28;;;;;;;;;;5061673;28;21743;-79
2023/01/11 13:59:21;;;;;;;18.65;3.42;;;;;;;;;;5056286;28;20054;-79
2023/01/11 14:01:52;;;;;;;24.63;3.67;;;;;;;;;;5059197;28;21418;-79
2023/01/11 14:04:22;;;;;;;24.15;3.95;;;;;;;;;;5056908;28;20047;-78
2023/01/11 14:06:50;;;;;;;25.35;3.80;;;;;;;;;;5059061;28;20062;-78
2023/01/11 14:09:35;;;;;;;34.40;3.97;;;;;;;;;;5060765;28;20083;-78
2023/01/11 14:12:13;;;;;;;22.08;3.97;;;;;;;;;;5056926;28;20048;-79
2023/01/11 14:14:58;;;;;;;24.52;3.97;;;;;;;;;;5057369;28;20646;-78
2023/01/11 14:17:35;;;;;;;24.67;4.43;;;;;;;;;;5058598;28;20477;-79
2023/01/11 14:20:20;;;;;;;23.98;3.65;;;;;;;;;;5045917;28;20052;-79
2023/01/11 14:22:49;;;;;;;15.75;2.78;;;;;;;;;;5058667;28;20071;-78
2023/01/11 14:25:18;;;;;;;22.65;4.13;;;;;;;;;;5058797;28;20131;-79
2023/01/11 14:27:44;;;;;;;26.13;4.22;;;;;;;;;;5048566;28;20095;-79
2023/01/11 14:30:16;;;;;;;17.35;3.35;;;;;;;;;;5084168;28;20047;-79
2023/01/11 14:32:55;;;;;;;31.33;3.85;;;;;;;;;;5080953;28;20089;-79
2023/01/11 14:35:40;;;;;;;26.02;4.32;;;;;;;;;;5076134;28;20044;-79
2023/01/11 14:38:06;;;;;;;24.73;3.72;;;;;;;;;;5067912;28;20047;-78
2023/01/11 14:40:32;;;;;;;29.67;3.45;;;;;;;;;;5054470;28;20082;-78
2023/01/11 14:43:17;;;;;;;24.73;3.92;;;;;;;;;;5056439;28;20036;-79
2023/01/11 14:46:01;;;;;;;28.00;3.63;;;;;;;;;;5039185;28;20063;-79
2023/01/11 14:48:27;;;;;;;;;;;;;;;;;;5055410;28;20051;-79
2023/01/11 14:50:56;;;;;;;22.27;3.70;;;;;;;;;;5041610;28;20188;-79
2023/01/11 14:53:25;;;;;;;26.33;3.97;;;;;;;;;;5061388;28;20089;-79
2023/01/11 14:55:51;;;;;;;16.60;3.55;;;;;;;;;;5038806;28;20036;-80
2023/01/11 14:58:23;;;;;;;15.80;2.60;;;;;;;;;;5052465;28;20040;-80
2023/01/11 15:00:49;;;;;;;23.10;3.67;;;;;;;;;;5058166;28;21883;-80
2023/01/11 15:03:19;;;;;;;23.65;4.55;;;;;;;;;;5052342;28;20044;-78
2023/01/11 15:05:57;;;;;;;25.40;4.28;;;;;;;;;;5052412;28;20048;-80
2023/01/11 15:08:25;;;;;;;23.65;3.72;;;;;;;;;;5042939;28;20427;-78
2023/01/11 15:10:57;;;;;;;21.38;3.88;;;;;;;;;;5056664;28;20032;-78
2023/01/11 15:13:23;;;;;;;26.13;5.05;;;;;;;;;;5054047;28;20059;-78
2023/01/11 15:18:45;;;;;;;24.77;3.95;;;;;;;;;;5054827;28;20093;-78
2023/01/11 15:21:25;;;;;;;16.58;3.10;;;;;;;;;;5054558;28;20039;-79